Campanya meteocatpedra

Dades de l'estació automàtica Molló - Fabert

?
?
Resum diari 23:00 TU
Dades diàries de l'estació meteorològica
Temperatura mitjana 12.1 °C
Temperatura màxima 17.3 °C 12:54 TU
Temperatura mínima 6.2 °C 4:22 TU
Humitat relativa mitjana 35%
Precipitació acumulada 0.0 mm
Ratxa màxima del vent (10 m) 45.4 km/h - 45º 22:27 TU
Pressió atmosfèrica mitjana 1024.0 hPa
Irradiació solar global 15.5 MJ/m2

El tram horari està expressat en Temps Universal (TU). Cal sumar una hora en horari d'hivern i dues en horari d'estiu per passar a l'hora oficial.

Molló - Fabert

Metadades estació meteorol´gica
Municipi Molló
Comarca Ripollès
Altitud 1405 m
Data alta 06.06.1996
Estat actual Operativa
Dades de període
Període
TU
TM
°C
TX
°C
TN
°C
HRM
%
PPT
mm
VVM (10 m)
km/h
DVM (10 m)
graus
VVX (10 m)
km/h
PM
hPa
RS
W/m2
00:00 - 00:30 9.5 10.4 9.0 24 0.0 10.4 11 20.9 1024.6 0
00:30 - 01:00 8.3 8.9 7.3 28 0.0 9.4 13 18.4 1025.3 0
01:00 - 01:30 9.5 10.0 8.2 24 0.0 11.9 11 23.4 1024.4 0
01:30 - 02:00 9.2 9.8 8.3 29 0.0 9.0 345 18.4 1024.4 0
02:00 - 02:30 9.1 9.6 8.3 34 0.0 6.5 341 25.9 1024.4 0
02:30 - 03:00 10.0 10.5 8.8 24 0.0 10.8 357 29.9 1023.8 0
03:00 - 03:30 8.9 10.3 7.9 26 0.0 8.6 8 17.3 1024.6 0
03:30 - 04:00 7.7 8.1 6.9 34 0.0 8.3 348 21.6 1025.4 0
04:00 - 04:30 7.2 8.0 6.2 35 0.0 9.0 2 17.6 1025.9 0
04:30 - 05:00 7.0 7.5 6.6 32 0.0 11.5 22 18.0 1026.2 0
05:00 - 05:30 7.9 9.1 6.9 29 0.0 14.0 23 25.6 1025.6 0
05:30 - 06:00 8.3 9.2 7.6 31 0.0 10.8 9 25.9 1025.6 3
06:00 - 06:30 8.3 9.2 7.3 32 0.0 11.5 27 24.1 1025.6 8
06:30 - 07:00 9.6 10.2 8.8 29 0.0 13.7 28 33.5 1025.0 21
07:00 - 07:30 12.2 13.2 10.3 25 0.0 8.3 44 19.4 1023.8 156
07:30 - 08:00 13.2 13.9 12.3 32 0.0 5.8 350 19.4 1023.5 216
08:00 - 08:30 13.0 14.2 12.1 37 0.0 6.5 34 19.4 1023.8 343
08:30 - 09:00 14.5 15.1 14.0 29 0.0 4.3 93 16.6 1023.4 425
09:00 - 09:30 15.5 16.2 14.6 28 0.0 5.0 123 16.6 1022.7 495
09:30 - 10:00 14.3 15.4 13.3 44 0.0 8.6 208 16.9 1023.6 556
10:00 - 10:30 15.0 15.8 14.7 43 0.0 4.7 192 15.1 1023.2 608
10:30 - 11:00 16.5 16.9 16.1 34 0.0 5.4 10 13.0 1022.4 646
11:00 - 11:30 16.4 16.7 16.0 45 0.0 7.9 201 16.6 1022.2 664
11:30 - 12:00 16.6 16.8 16.4 44 0.0 8.6 198 16.9 1021.9 665
12:00 - 12:30 16.5 16.9 15.8 44 0.0 7.6 214 15.5 1021.8 651
12:30 - 13:00 16.9 17.3 16.6 44 0.0 6.5 197 14.4 1021.2 622
13:00 - 13:30 16.8 17.2 16.1 46 0.0 7.2 200 18.7 1021.1 581
13:30 - 14:00 16.7 17.2 16.3 45 0.0 5.8 135 14.0 1021.2 524
14:00 - 14:30 15.8 16.1 15.0 47 0.0 6.8 141 24.1 1021.8 455
14:30 - 15:00 15.1 15.3 14.9 59 0.0 6.5 201 16.2 1022.2 370
15:00 - 15:30 14.5 15.0 14.2 62 0.0 5.0 221 13.3 1022.5 283
15:30 - 16:00 13.4 14.1 12.5 65 0.0 6.8 223 15.1 1023.0 190
16:00 - 16:30 11.4 12.6 10.1 72 0.0 4.7 236 11.9 1024.1 79
16:30 - 17:00 9.6 10.3 8.7 78 0.0 2.2 282 6.8 1025.1 13
17:00 - 17:30 9.3 10.2 8.8 73 0.0 4.0 291 13.0 1025.6 3
17:30 - 18:00 9.0 10.0 8.4 41 0.0 5.8 21 17.3 1026.2 2
18:00 - 18:30 9.9 11.7 9.2 33 0.0 10.1 13 28.1 1025.7 2
18:30 - 19:00 11.9 12.3 11.4 22 0.0 13.7 21 31.7 1024.4 2
19:00 - 19:30 12.9 13.3 12.5 16 0.0 18.7 13 36.4 1023.8 2
19:30 - 20:00 13.1 13.4 12.8 15 0.0 19.1 11 36.0 1023.8 2
20:00 - 20:30 13.0 13.3 12.7 15 0.0 18.0 10 39.2 1024.1 2
20:30 - 21:00 12.5 12.9 12.2 16 0.0 16.9 7 34.6 1024.5 2
21:00 - 21:30 12.3 12.8 11.9 16 0.0 16.6 16 31.0 1024.7 2
21:30 - 22:00 12.5 12.9 12.2 16 0.0 18.7 10 39.6 1024.8 2
22:00 - 22:30 12.4 12.8 12.1 18 0.0 21.2 8 45.4 1024.8 3
22:30 - 23:00 12.5 12.7 12.2 19 0.0 20.9 19 36.0 1024.4 3
23:00 - 23:30 13.0 13.3 12.4 18 0.0 24.1 15 39.6 1023.6 3

Les dades en taronja només han passat un control de qualitat automàtic. Resta pendent la seva validació definitiva.